Big Lake, Indiana
Current Conditions -  °F | °C
As of 6:54 PM on Sunday 25 Jan 2015 (Local Time) from KFWA Reporting Station
Light Snow Light Snow  
Wind Chill:   Ceiling: 2600
Heat Index: 21°   Visibility: 1.7mi
Dew Point: 18°   Wind: 18mph
Humidity: 88%   Direction: 50°NE
Pressure: 29.85"   Gusts: 29mph
Location:  41.1479°N, 85.4772°W
Report Text: KFWA 252354Z 05016G25KT 1 3/4SM -SN BR BKN026 OVC033 M06/M08 A2985 RMK AO2 PK WND 04027/2327 SLP119 4/001 P0001 60010 T10611078 11022 21061 52024 $
Loading
Personal Weather Stations






























Interactive Weather Map New forecast layout! Learn more

10-Day Weather Forecast

Advertisements
Track Severe Weather on mobile